Time;durP1;ratioP1;P1;durP2;ratioP2;P2;SDS_P1;SDS_P2;PMS_P1;PMS_P2;Temp;Humidity;BMP_temperature;BMP_pressure;BME280_temperature;BME280_humidity;BME280_pressure;Samples;Min_cycle;Max_cycle;Signal;HPM_P1;HPM_P2
2022/12/23 00:01:27;;;;;;;11.77;6.10;;;;;;;;;;5020144;28;20024;-66
2022/12/23 00:03:55;;;;;;;13.48;7.07;;;;;;;;;;5021259;28;20091;-66
2022/12/23 00:06:20;;;;;;;11.40;6.40;;;;;;;;;;5010366;28;20088;-66
2022/12/23 00:08:46;;;;;;;13.13;7.10;;;;;;;;;;5011264;28;20021;-66
2022/12/23 00:11:12;;;;;;;18.60;7.07;;;;;;;;;;5020526;28;20082;-66
2022/12/23 00:16:22;;;;;;;13.43;6.50;;;;;;;;;;5007607;28;20143;-66
2022/12/23 00:18:47;;;;;;;24.08;7.40;;;;;;;;;;5016467;28;20028;-66
2022/12/23 00:21:14;;;;;;;20.98;7.78;;;;;;;;;;5019518;28;20078;-66
2022/12/23 00:23:40;;;;;;;12.75;7.68;;;;;;;;;;5016651;28;20029;-66
2022/12/23 00:26:06;;;;;;;22.02;9.82;;;;;;;;;;5003860;28;20156;-66
2022/12/23 00:28:31;;;;;;;17.50;8.18;;;;;;;;;;5018351;28;20842;-66
2022/12/23 00:31:00;;;;;;;18.48;9.23;;;;;;;;;;5012118;28;20029;-66
2022/12/23 00:33:27;;;;;;;17.08;9.93;;;;;;;;;;5010287;28;20755;-66
2022/12/23 00:35:53;;;;;;;18.33;9.68;;;;;;;;;;5015586;28;20028;-66
2022/12/23 00:42:52;;;;;;;18.92;9.25;;;;;;;;;;5017820;28;20783;-66
2022/12/23 00:43:57;;;;;;;17.25;10.18;;;;;;;;;;5018058;28;20036;-66
2022/12/23 00:46:23;;;;;;;17.02;10.40;;;;;;;;;;5017857;28;20820;-66
2022/12/23 00:51:32;;;;;;;19.20;10.57;;;;;;;;;;5019030;28;20602;-66
2022/12/23 00:53:57;;;;;;;23.33;10.10;;;;;;;;;;5018428;28;20275;-66
2022/12/23 00:56:23;;;;;;;27.20;9.55;;;;;;;;;;5018318;28;20032;-66
2022/12/23 00:58:48;;;;;;;22.73;10.00;;;;;;;;;;5015942;28;20025;-66
2022/12/23 01:06:41;;;;;;;21.83;13.13;;;;;;;;;;5009893;28;20834;-67
2022/12/23 01:09:06;;;;;;;23.48;13.35;;;;;;;;;;5015060;28;20021;-66
2022/12/23 01:11:31;;;;;;;21.90;13.18;;;;;;;;;;5016085;28;20119;-66
2022/12/23 01:13:57;;;;;;;21.20;14.13;;;;;;;;;;5017445;28;20063;-66
2022/12/23 01:16:22;;;;;;;25.98;14.52;;;;;;;;;;5017205;28;20802;-66
2022/12/23 01:18:47;;;;;;;30.95;15.20;;;;;;;;;;5017308;28;20040;-66
2022/12/23 01:21:13;;;;;;;18.95;13.10;;;;;;;;;;5017770;28;20031;-66
2022/12/23 01:23:38;;;;;;;20.33;13.18;;;;;;;;;;5019177;28;20781;-66
2022/12/23 01:26:05;;;;;;;22.13;12.68;;;;;;;;;;5017325;28;20025;-67
2022/12/23 01:28:31;;;;;;;23.42;11.45;;;;;;;;;;5019975;28;20214;-67
2022/12/23 01:30:58;;;;;;;18.27;11.20;;;;;;;;;;5016127;28;20028;-67
2022/12/23 01:33:23;;;;;;;23.45;10.57;;;;;;;;;;5017250;28;20033;-66
2022/12/23 01:35:49;;;;;;;24.33;11.63;;;;;;;;;;5013282;28;21011;-67
2022/12/23 01:38:14;;;;;;;26.58;10.98;;;;;;;;;;5005685;28;21132;-66
2022/12/23 01:40:40;;;;;;;19.25;10.48;;;;;;;;;;5015774;28;20052;-66
2022/12/23 01:43:10;;;;;;;17.30;9.93;;;;;;;;;;5020852;28;20126;-67
2022/12/23 01:45:35;;;;;;;15.77;9.02;;;;;;;;;;5019760;28;20127;-66
2022/12/23 01:48:04;;;;;;;25.13;9.93;;;;;;;;;;5018803;28;20043;-66
2022/12/23 01:50:49;;;;;;;15.82;9.77;;;;;;;;;;5017870;28;20043;-67
2022/12/23 01:53:19;;;;;;;22.30;9.27;;;;;;;;;;5017289;28;20086;-66
2022/12/23 01:55:58;;;;;;;23.05;9.75;;;;;;;;;;5015593;28;20052;-67
2022/12/23 01:58:26;;;;;;;20.52;9.48;;;;;;;;;;5006841;28;20427;-67
2022/12/23 02:03:42;;;;;;;18.95;9.52;;;;;;;;;;5009637;28;20067;-67
2022/12/23 02:09:24;;;;;;;20.27;10.13;;;;;;;;;;5005957;28;20028;-67
2022/12/23 02:11:55;;;;;;;25.52;9.00;;;;;;;;;;5006988;28;20016;-66
2022/12/23 02:17:42;;;;;;;20.60;9.43;;;;;;;;;;5006470;28;20075;-67
2022/12/23 02:20:28;;;;;;;17.90;9.70;;;;;;;;;;5011802;28;20017;-66
2022/12/23 02:22:53;;;;;;;27.33;10.05;;;;;;;;;;5016490;28;20156;-66
2022/12/23 02:25:18;;;;;;;20.60;9.70;;;;;;;;;;5019497;28;20013;-66
2022/12/23 02:27:43;;;;;;;20.27;9.90;;;;;;;;;;5017517;28;21040;-67
2022/12/23 02:30:24;;;;;;;20.45;8.48;;;;;;;;;;5017886;28;21167;-67
2022/12/23 02:32:55;;;;;;;15.38;9.38;;;;;;;;;;5019262;28;20088;-66
2022/12/23 02:35:46;;;;;;;18.15;9.02;;;;;;;;;;5017969;28;20052;-67
2022/12/23 02:38:15;;;;;;;21.40;9.25;;;;;;;;;;4997466;28;20302;-67
2022/12/23 02:40:41;;;;;;;19.10;10.45;;;;;;;;;;5018532;28;20036;-67
2022/12/23 02:43:25;;;;;;;14.97;8.33;;;;;;;;;;5019453;28;20028;-67
2022/12/23 02:45:57;;;;;;;18.23;8.85;;;;;;;;;;5017644;28;20345;-67
2022/12/23 02:48:41;;;;;;;16.35;8.50;;;;;;;;;;5015983;28;20032;-67
2022/12/23 02:51:08;;;;;;;19.10;8.43;;;;;;;;;;5018784;28;20478;-67
2022/12/23 02:53:36;;;;;;;18.00;7.55;;;;;;;;;;5017323;28;20036;-67
2022/12/23 02:56:02;;;;;;;16.23;7.75;;;;;;;;;;5016515;28;20036;-66
2022/12/23 02:58:30;;;;;;;12.57;7.47;;;;;;;;;;5021933;28;20821;-67
2022/12/23 03:00:56;;;;;;;13.70;7.97;;;;;;;;;;5017704;28;20017;-67
2022/12/23 03:03:22;;;;;;;9.48;5.97;;;;;;;;;;5012901;28;20103;-67
2022/12/23 03:05:49;;;;;;;14.45;5.97;;;;;;;;;;5017465;28;20932;-67
2022/12/23 03:08:23;;;;;;;15.98;6.68;;;;;;;;;;5019798;28;20079;-67
2022/12/23 03:11:02;;;;;;;13.65;5.95;;;;;;;;;;5018532;28;20446;-66
2022/12/23 03:13:46;;;;;;;18.75;5.70;;;;;;;;;;5020307;28;20120;-67
2022/12/23 03:16:16;;;;;;;12.07;6.27;;;;;;;;;;5017927;28;20063;-67
2022/12/23 03:19:00;;;;;;;15.63;5.00;;;;;;;;;;5017894;28;20820;-66
2022/12/23 03:21:26;;;;;;;12.07;5.03;;;;;;;;;;5018910;28;20129;-66
2022/12/23 03:24:14;;;;;;;14.43;4.70;;;;;;;;;;5010536;28;20031;-67
2022/12/23 03:26:43;;;;;;;7.95;4.03;;;;;;;;;;4992245;28;21203;-66
2022/12/23 03:29:12;;;;;;;13.45;4.95;;;;;;;;;;5015482;28;20533;-66
2022/12/23 03:31:39;;;;;;;8.68;3.45;;;;;;;;;;5015214;28;20765;-66
2022/12/23 03:34:09;;;;;;;12.50;3.80;;;;;;;;;;5011632;28;20025;-67
2022/12/23 03:36:46;;;;;;;10.75;3.90;;;;;;;;;;5012331;28;20107;-67
2022/12/23 03:39:13;;;;;;;13.63;4.93;;;;;;;;;;5015888;28;20021;-67
2022/12/23 03:41:41;;;;;;;11.70;4.30;;;;;;;;;;5017067;28;20029;-66
2022/12/23 03:44:14;;;;;;;16.10;4.70;;;;;;;;;;5015944;28;20017;-67
2022/12/23 03:46:42;;;;;;;10.20;5.40;;;;;;;;;;5016452;28;20858;-66
2022/12/23 03:49:14;;;;;;;18.38;4.85;;;;;;;;;;5013989;28;20838;-67
2022/12/23 03:51:59;;;;;;;7.47;4.47;;;;;;;;;;5013979;28;20023;-67
2022/12/23 03:54:30;;;;;;;12.60;4.57;;;;;;;;;;5015291;28;20021;-67
2022/12/23 03:57:00;;;;;;;9.43;4.90;;;;;;;;;;5018217;28;20032;-67
2022/12/23 03:59:27;;;;;;;18.55;5.95;;;;;;;;;;5020020;28;20597;-67
2022/12/23 04:02:09;;;;;;;12.20;6.28;;;;;;;;;;5006349;28;20017;-67
2022/12/23 04:04:44;;;;;;;12.27;6.40;;;;;;;;;;5014811;28;20570;-67
2022/12/23 04:07:12;;;;;;;11.05;6.78;;;;;;;;;;5015551;28;20028;-67
2022/12/23 04:09:38;;;;;;;22.48;7.18;;;;;;;;;;5017621;28;20052;-67
2022/12/23 04:12:03;;;;;;;18.08;6.80;;;;;;;;;;5015641;28;20032;-67
2022/12/23 04:14:29;;;;;;;13.10;7.22;;;;;;;;;;5017489;28;20041;-67
2022/12/23 04:16:55;;;;;;;15.13;7.80;;;;;;;;;;5018895;28;20118;-67
2022/12/23 04:19:20;;;;;;;15.80;6.85;;;;;;;;;;5015947;28;20029;-67
2022/12/23 04:21:46;;;;;;;15.07;7.25;;;;;;;;;;5017873;28;20024;-67
2022/12/23 04:24:11;;;;;;;18.58;8.02;;;;;;;;;;5016467;28;20116;-67
2022/12/23 04:26:36;;;;;;;17.50;7.00;;;;;;;;;;5016385;28;20048;-67
2022/12/23 04:29:01;;;;;;;13.05;6.65;;;;;;;;;;5014859;28;20246;-67
2022/12/23 04:31:27;;;;;;;14.10;7.78;;;;;;;;;;5016229;28;20029;-67
2022/12/23 04:33:52;;;;;;;13.07;6.65;;;;;;;;;;5014656;28;20722;-67
2022/12/23 04:36:17;;;;;;;14.35;8.50;;;;;;;;;;5020246;28;20139;-67
2022/12/23 04:38:42;;;;;;;15.63;8.93;;;;;;;;;;5017816;28;20914;-67
2022/12/23 04:41:08;;;;;;;15.00;8.65;;;;;;;;;;5010316;28;20494;-67
2022/12/23 04:43:33;;;;;;;15.73;8.85;;;;;;;;;;5016037;28;20032;-67
2022/12/23 04:45:58;;;;;;;20.50;8.52;;;;;;;;;;5010813;28;20017;-67
2022/12/23 04:48:23;;;;;;;18.38;8.60;;;;;;;;;;5018331;28;20037;-67
2022/12/23 04:50:48;;;;;;;13.43;7.10;;;;;;;;;;5018666;28;20032;-67
2022/12/23 04:53:14;;;;;;;15.50;7.63;;;;;;;;;;5019498;28;20017;-67
2022/12/23 04:55:39;;;;;;;18.23;8.23;;;;;;;;;;5021364;28;20227;-67
2022/12/23 04:58:04;;;;;;;16.92;7.47;;;;;;;;;;5022602;28;20170;-67
2022/12/23 05:00:29;;;;;;;14.30;6.93;;;;;;;;;;5018372;28;20033;-67
2022/12/23 05:02:55;;;;;;;19.17;7.00;;;;;;;;;;5014588;28;20144;-67
2022/12/23 05:05:20;;;;;;;14.85;6.70;;;;;;;;;;5020507;28;20625;-67
2022/12/23 05:07:47;;;;;;;16.77;7.40;;;;;;;;;;5023794;28;20898;-67
2022/12/23 05:10:13;;;;;;;9.10;5.82;;;;;;;;;;5022709;28;20376;-67
2022/12/23 05:12:38;;;;;;;21.30;7.13;;;;;;;;;;5019032;28;20904;-67
2022/12/23 05:15:03;;;;;;;11.32;6.32;;;;;;;;;;5016919;28;20485;-67
2022/12/23 05:17:29;;;;;;;15.77;7.38;;;;;;;;;;5016128;28;20044;-67
2022/12/23 05:19:54;;;;;;;13.18;7.13;;;;;;;;;;5013214;28;20759;-67
2022/12/23 05:22:19;;;;;;;20.23;8.43;;;;;;;;;;5016021;28;20029;-67
2022/12/23 05:24:44;;;;;;;13.02;7.55;;;;;;;;;;5015778;28;20842;-67
2022/12/23 05:27:09;;;;;;;9.82;6.90;;;;;;;;;;5015939;28;20033;-67
2022/12/23 05:29:35;;;;;;;12.82;7.00;;;;;;;;;;5017320;28;20029;-67
2022/12/23 05:32:00;;;;;;;18.92;8.55;;;;;;;;;;5013524;28;21035;-67
2022/12/23 05:34:25;;;;;;;12.02;7.60;;;;;;;;;;5006647;28;20024;-67
2022/12/23 05:36:51;;;;;;;13.45;8.45;;;;;;;;;;5021682;28;20749;-67
2022/12/23 05:39:16;;;;;;;13.77;7.10;;;;;;;;;;5020639;28;20124;-67
2022/12/23 05:41:41;;;;;;;14.35;8.40;;;;;;;;;;5021982;28;20115;-67
2022/12/23 05:44:06;;;;;;;13.32;7.25;;;;;;;;;;5016315;28;20098;-67
2022/12/23 05:46:32;;;;;;;17.10;7.15;;;;;;;;;;5013166;28;20024;-67
2022/12/23 05:48:57;;;;;;;10.80;7.15;;;;;;;;;;5016043;28;20925;-67
2022/12/23 05:51:22;;;;;;;15.85;6.80;;;;;;;;;;5019145;28;20052;-67
2022/12/23 05:53:47;;;;;;;13.45;6.95;;;;;;;;;;5019278;28;20025;-67
2022/12/23 05:56:13;;;;;;;11.57;7.15;;;;;;;;;;5020793;28;20029;-67
2022/12/23 05:58:38;;;;;;;12.73;7.13;;;;;;;;;;5021918;28;20033;-67
2022/12/23 06:01:03;;;;;;;21.63;7.57;;;;;;;;;;5019236;28;20127;-67
2022/12/23 06:03:28;;;;;;;13.20;6.25;;;;;;;;;;5016335;28;20029;-67
2022/12/23 06:05:54;;;;;;;11.40;6.72;;;;;;;;;;5016305;28;20029;-67
2022/12/23 06:08:19;;;;;;;15.20;7.05;;;;;;;;;;5009849;28;20021;-67
2022/12/23 06:10:45;;;;;;;12.82;7.32;;;;;;;;;;5020740;28;20039;-67
2022/12/23 06:13:10;;;;;;;13.82;7.40;;;;;;;;;;5009449;28;20747;-67
2022/12/23 06:15:35;;;;;;;13.95;7.85;;;;;;;;;;5018514;28;20043;-67
2022/12/23 06:18:00;;;;;;;18.30;7.57;;;;;;;;;;5016895;28;20907;-67
2022/12/23 06:20:26;;;;;;;9.70;7.40;;;;;;;;;;5016968;28;20036;-67
2022/12/23 06:22:51;;;;;;;13.98;7.82;;;;;;;;;;5015991;28;20036;-67
2022/12/23 06:25:16;;;;;;;10.90;8.02;;;;;;;;;;5017996;28;20020;-67
2022/12/23 06:27:41;;;;;;;14.73;7.75;;;;;;;;;;5016451;28;20876;-67
2022/12/23 06:30:07;;;;;;;22.87;8.23;;;;;;;;;;5017867;28;20024;-67
2022/12/23 06:32:32;;;;;;;15.73;7.95;;;;;;;;;;5017472;28;20275;-67
2022/12/23 06:34:58;;;;;;;10.55;7.25;;;;;;;;;;5016428;28;20051;-67
2022/12/23 06:37:23;;;;;;;14.80;7.88;;;;;;;;;;5015192;28;20037;-67
2022/12/23 06:39:48;;;;;;;10.98;7.13;;;;;;;;;;5015428;28;20454;-67
2022/12/23 06:42:13;;;;;;;12.95;8.13;;;;;;;;;;5027357;28;20036;-67
2022/12/23 06:44:39;;;;;;;17.65;7.90;;;;;;;;;;5013138;28;20996;-67
2022/12/23 06:47:04;;;;;;;15.20;8.05;;;;;;;;;;5012111;28;20127;-67
2022/12/23 06:49:30;;;;;;;18.50;8.38;;;;;;;;;;5015407;28;20167;-67
2022/12/23 06:51:55;;;;;;;21.45;7.40;;;;;;;;;;5014024;28;20126;-67
2022/12/23 06:54:20;;;;;;;13.23;8.02;;;;;;;;;;5017835;28;20098;-67
2022/12/23 06:56:45;;;;;;;17.00;8.18;;;;;;;;;;5016462;28;20090;-67
2022/12/23 06:59:10;;;;;;;13.00;8.20;;;;;;;;;;5015992;28;20028;-67
2022/12/23 07:01:36;;;;;;;15.47;8.57;;;;;;;;;;5011543;28;20022;-67
2022/12/23 07:04:01;;;;;;;18.33;9.70;;;;;;;;;;5014909;28;20276;-67
2022/12/23 07:06:27;;;;;;;18.50;13.05;;;;;;;;;;5010610;28;20547;-67
2022/12/23 07:08:52;;;;;;;17.38;11.32;;;;;;;;;;5024496;28;20028;-67
2022/12/23 07:11:17;;;;;;;20.48;14.50;;;;;;;;;;5018044;28;20047;-67
2022/12/23 07:13:44;;;;;;;26.63;18.25;;;;;;;;;;5012486;28;20029;-67
2022/12/23 07:16:09;;;;;;;22.80;14.77;;;;;;;;;;5011973;28;20083;-67
2022/12/23 07:18:35;;;;;;;19.10;12.65;;;;;;;;;;5011004;28;20884;-68
2022/12/23 07:21:00;;;;;;;17.73;10.70;;;;;;;;;;5009373;28;20071;-68
2022/12/23 07:23:26;;;;;;;21.55;13.25;;;;;;;;;;5011846;28;20910;-68
2022/12/23 07:25:51;;;;;;;24.48;15.02;;;;;;;;;;5008108;28;20040;-68
2022/12/23 07:28:16;;;;;;;23.05;12.05;;;;;;;;;;5007585;28;20892;-68
2022/12/23 07:30:41;;;;;;;20.50;12.63;;;;;;;;;;5006897;28;20048;-67
2022/12/23 07:33:07;;;;;;;14.95;11.00;;;;;;;;;;5003043;28;20060;-69
2022/12/23 07:35:33;;;;;;;17.80;9.73;;;;;;;;;;5005536;28;20020;-69
2022/12/23 07:37:58;;;;;;;11.90;8.93;;;;;;;;;;5011021;28;20032;-69
2022/12/23 07:40:24;;;;;;;18.70;9.88;;;;;;;;;;5007019;28;20025;-67
2022/12/23 07:42:52;;;;;;;19.83;8.85;;;;;;;;;;5009405;28;20033;-70
2022/12/23 07:45:17;;;;;;;14.25;7.55;;;;;;;;;;5008837;28;20016;-67
2022/12/23 07:47:42;;;;;;;11.15;7.47;;;;;;;;;;5018954;28;20093;-67
2022/12/23 07:50:08;;;;;;;11.63;7.68;;;;;;;;;;5012146;28;20265;-67
2022/12/23 07:52:33;;;;;;;14.88;8.20;;;;;;;;;;5006634;28;20052;-68
2022/12/23 07:54:58;;;;;;;17.70;8.07;;;;;;;;;;5006450;28;20016;-67
2022/12/23 07:57:24;;;;;;;17.10;8.13;;;;;;;;;;5006933;28;20083;-66
2022/12/23 07:59:49;;;;;;;11.68;8.20;;;;;;;;;;5005496;28;20055;-67
2022/12/23 08:02:14;;;;;;;20.02;8.52;;;;;;;;;;5005532;28;20060;-67
2022/12/23 08:04:39;;;;;;;15.90;8.77;;;;;;;;;;5005299;28;20060;-67
2022/12/23 08:07:04;;;;;;;12.77;8.52;;;;;;;;;;5006762;28;20077;-67
2022/12/23 08:09:30;;;;;;;15.80;8.45;;;;;;;;;;5005210;28;20890;-68
2022/12/23 08:11:55;;;;;;;18.25;8.77;;;;;;;;;;5004191;28;20024;-66
2022/12/23 08:14:20;;;;;;;13.25;8.68;;;;;;;;;;5006098;28;20018;-66
2022/12/23 08:16:46;;;;;;;14.43;8.63;;;;;;;;;;5006645;28;20933;-67
2022/12/23 08:19:12;;;;;;;13.30;8.50;;;;;;;;;;5006801;28;20840;-67
2022/12/23 08:21:37;;;;;;;14.57;9.37;;;;;;;;;;5005656;28;20083;-67
2022/12/23 08:24:02;;;;;;;11.10;8.93;;;;;;;;;;5006538;28;21285;-67
2022/12/23 08:26:27;;;;;;;17.25;9.05;;;;;;;;;;5002388;28;20140;-66
2022/12/23 08:28:53;;;;;;;16.77;9.20;;;;;;;;;;5004105;28;20059;-67
2022/12/23 08:31:19;;;;;;;11.43;8.68;;;;;;;;;;5012316;28;20070;-67
2022/12/23 08:33:46;;;;;;;21.15;8.30;;;;;;;;;;5009871;28;20111;-66
2022/12/23 08:36:13;;;;;;;24.70;8.15;;;;;;;;;;5009702;28;20037;-67
2022/12/23 08:38:38;;;;;;;14.25;7.82;;;;;;;;;;5010086;28;20808;-67
2022/12/23 08:41:07;;;;;;;18.90;7.57;;;;;;;;;;5011383;28;20021;-67
2022/12/23 08:43:32;;;;;;;9.55;7.03;;;;;;;;;;5013900;28;20040;-67
2022/12/23 08:45:58;;;;;;;13.10;7.38;;;;;;;;;;5012655;28;20029;-67
2022/12/23 08:48:23;;;;;;;10.80;7.28;;;;;;;;;;5012001;28;20902;-67
2022/12/23 08:50:48;;;;;;;12.68;7.55;;;;;;;;;;5013779;28;20820;-67
2022/12/23 08:53:13;;;;;;;13.50;6.88;;;;;;;;;;5013004;28;20098;-67
2022/12/23 08:55:40;;;;;;;10.23;6.55;;;;;;;;;;5010462;28;20025;-67
2022/12/23 08:58:06;;;;;;;11.23;6.63;;;;;;;;;;5003917;28;20045;-67
2022/12/23 09:00:31;;;;;;;10.43;6.55;;;;;;;;;;5007345;28;20090;-67
2022/12/23 09:02:56;;;;;;;10.52;6.40;;;;;;;;;;5010017;28;20028;-67
2022/12/23 09:05:21;;;;;;;21.52;6.10;;;;;;;;;;5009582;28;20065;-67
2022/12/23 09:07:47;;;;;;;10.02;5.28;;;;;;;;;;5009417;28;20099;-67
2022/12/23 09:10:12;;;;;;;10.63;5.75;;;;;;;;;;5009800;28;20048;-67
2022/12/23 09:12:37;;;;;;;15.00;5.13;;;;;;;;;;5009615;28;20969;-67
2022/12/23 09:15:02;;;;;;;8.98;4.47;;;;;;;;;;5009391;28;20789;-67
2022/12/23 09:17:28;;;;;;;7.97;4.38;;;;;;;;;;5009079;28;20037;-67
2022/12/23 09:19:53;;;;;;;14.50;4.20;;;;;;;;;;5007238;28;20099;-67
2022/12/23 09:22:18;;;;;;;7.30;3.67;;;;;;;;;;5008446;28;20017;-67
2022/12/23 09:24:43;;;;;;;9.75;4.22;;;;;;;;;;5010272;28;20113;-67
2022/12/23 09:27:09;;;;;;;15.13;4.30;;;;;;;;;;5006398;28;20040;-67
2022/12/23 09:29:34;;;;;;;7.63;3.30;;;;;;;;;;5011587;28;20137;-67
2022/12/23 09:31:59;;;;;;;9.85;4.22;;;;;;;;;;5008046;28;20960;-67
2022/12/23 09:34:25;;;;;;;15.75;4.18;;;;;;;;;;5007320;28;20017;-67
2022/12/23 09:36:51;;;;;;;14.45;5.05;;;;;;;;;;5007145;28;20110;-67
2022/12/23 09:39:16;;;;;;;15.57;4.60;;;;;;;;;;5008539;28;20873;-67
2022/12/23 09:42:04;;;;;;;10.82;4.75;;;;;;;;;;5017608;28;20046;-68
2022/12/23 09:44:40;;;;;;;11.52;3.75;;;;;;;;;;5026329;28;20570;-67
2022/12/23 09:47:09;;;;;;;8.82;5.05;;;;;;;;;;5026492;28;20036;-67
2022/12/23 09:49:40;;;;;;;9.68;4.70;;;;;;;;;;5028907;28;20115;-67
2022/12/23 09:52:09;;;;;;;8.32;4.07;;;;;;;;;;5036592;28;20024;-67
2022/12/23 09:54:41;;;;;;;8.18;4.30;;;;;;;;;;5037995;28;20040;-67
2022/12/23 09:57:13;;;;;;;13.52;4.68;;;;;;;;;;5039345;28;20048;-67
2022/12/23 09:59:48;;;;;;;9.60;4.63;;;;;;;;;;5038257;28;20125;-67
2022/12/23 10:02:13;;;;;;;;;;;;;;;;;;5036132;28;20036;-67
2022/12/23 10:04:49;;;;;;;13.75;5.03;;;;;;;;;;5035634;28;19909;-67
2022/12/23 10:07:22;;;;;;;13.00;4.97;;;;;;;;;;5035427;28;20823;-67
2022/12/23 10:09:49;;;;;;;18.85;4.28;;;;;;;;;;5029414;28;20725;-67
2022/12/23 10:12:17;;;;;;;11.77;5.45;;;;;;;;;;5034640;28;20107;-67
2022/12/23 10:14:43;;;;;;;19.52;5.90;;;;;;;;;;5037596;28;20108;-68
2022/12/23 10:17:34;;;;;;;9.30;5.50;;;;;;;;;;5037390;28;20040;-68
2022/12/23 10:20:01;;;;;;;9.60;4.97;;;;;;;;;;5007296;28;20036;-70
2022/12/23 10:22:37;;;;;;;11.45;5.25;;;;;;;;;;5035268;28;20063;-67
2022/12/23 10:25:04;;;;;;;13.55;6.45;;;;;;;;;;5034722;28;20103;-67
2022/12/23 10:27:29;;;;;;;11.77;5.85;;;;;;;;;;5032204;28;20120;-67
2022/12/23 10:29:55;;;;;;;12.50;5.47;;;;;;;;;;5035240;28;20017;-67
2022/12/23 10:32:45;;;;;;;9.90;5.68;;;;;;;;;;5036582;28;20287;-67
2022/12/23 10:35:36;;;;;;;15.70;5.75;;;;;;;;;;5030158;28;20400;-67
2022/12/23 10:38:21;;;;;;;7.78;4.80;;;;;;;;;;5030026;28;20025;-67
2022/12/23 10:40:49;;;;;;;9.05;5.50;;;;;;;;;;5032537;28;20590;-67
2022/12/23 10:43:26;;;;;;;10.70;5.45;;;;;;;;;;5037727;28;20032;-67
2022/12/23 10:45:55;;;;;;;10.60;5.28;;;;;;;;;;5031094;28;20024;-67
2022/12/23 10:48:20;;;;;;;14.02;6.53;;;;;;;;;;5034309;28;20043;-67
2022/12/23 10:50:52;;;;;;;10.20;5.43;;;;;;;;;;5032899;28;20025;-67
2022/12/23 10:53:27;;;;;;;6.93;4.90;;;;;;;;;;5030887;28;20880;-67
2022/12/23 10:55:53;;;;;;;10.25;5.70;;;;;;;;;;5031342;28;20868;-67
2022/12/23 10:58:20;;;;;;;9.98;4.80;;;;;;;;;;5029135;28;20052;-67
2022/12/23 11:00:50;;;;;;;15.43;6.53;;;;;;;;;;5035245;28;20966;-67
2022/12/23 11:03:18;;;;;;;11.98;6.72;;;;;;;;;;5034341;28;20081;-67
2022/12/23 11:05:44;;;;;;;17.70;6.93;;;;;;;;;;5033794;28;20048;-67
2022/12/23 11:08:10;;;;;;;11.52;6.47;;;;;;;;;;5041425;28;20056;-67
2022/12/23 11:10:35;;;;;;;13.00;6.30;;;;;;;;;;5040061;28;20104;-67
2022/12/23 11:13:00;;;;;;;9.35;5.72;;;;;;;;;;5044800;28;20479;-68
2022/12/23 11:15:27;;;;;;;9.93;5.88;;;;;;;;;;5039956;28;20553;-67
2022/12/23 11:17:57;;;;;;;15.07;6.97;;;;;;;;;;5034501;28;20911;-67
2022/12/23 11:20:22;;;;;;;9.77;6.38;;;;;;;;;;5034916;28;20091;-67
2022/12/23 11:22:53;;;;;;;18.83;7.15;;;;;;;;;;5037581;28;20573;-67
2022/12/23 11:25:18;;;;;;;9.50;6.97;;;;;;;;;;5027426;28;20083;-67
2022/12/23 11:27:44;;;;;;;9.95;8.02;;;;;;;;;;5032686;28;20025;-67
2022/12/23 11:30:17;;;;;;;17.38;8.93;;;;;;;;;;5036682;28;20021;-67
2022/12/23 11:32:42;;;;;;;16.40;9.15;;;;;;;;;;5030277;28;20051;-67
2022/12/23 11:35:22;;;;;;;13.60;8.00;;;;;;;;;;5034379;28;20024;-67
2022/12/23 11:37:47;;;;;;;14.18;8.55;;;;;;;;;;5028954;28;20032;-67
2022/12/23 11:40:19;;;;;;;12.43;7.97;;;;;;;;;;5026895;28;20021;-68
2022/12/23 11:42:45;;;;;;;14.73;8.65;;;;;;;;;;5028014;28;20057;-70
2022/12/23 11:45:19;;;;;;;12.02;9.07;;;;;;;;;;5037600;28;20108;-68
2022/12/23 11:47:45;;;;;;;20.17;9.25;;;;;;;;;;5028720;28;20128;-74
2022/12/23 11:50:24;;;;;;;16.25;9.63;;;;;;;;;;5032349;28;20083;-74
2022/12/23 11:52:51;;;;;;;12.85;8.52;;;;;;;;;;5012704;28;20420;-67
2022/12/23 11:55:28;;;;;;;11.43;8.05;;;;;;;;;;5017405;28;20017;-67
2022/12/23 11:57:54;;;;;;;8.57;6.88;;;;;;;;;;5009279;28;20033;-67
2022/12/23 12:00:21;;;;;;;20.00;8.23;;;;;;;;;;5015948;28;20079;-67
2022/12/23 12:02:48;;;;;;;10.20;7.20;;;;;;;;;;5013986;28;20452;-67
2022/12/23 12:05:20;;;;;;;12.50;5.65;;;;;;;;;;5031722;28;20449;-67
2022/12/23 12:07:45;;;;;;;14.43;5.57;;;;;;;;;;5052186;28;20017;-67
2022/12/23 12:10:23;;;;;;;10.00;4.95;;;;;;;;;;5043467;28;20459;-67
2022/12/23 12:12:50;;;;;;;10.27;4.60;;;;;;;;;;5051858;28;20489;-68
2022/12/23 12:15:23;;;;;;;8.23;5.35;;;;;;;;;;5044233;28;20446;-68
2022/12/23 12:17:51;;;;;;;10.60;4.90;;;;;;;;;;5040424;28;20032;-68
2022/12/23 12:20:32;;;;;;;10.90;4.57;;;;;;;;;;5037511;28;20051;-68
2022/12/23 12:23:20;;;;;;;13.65;4.70;;;;;;;;;;5043307;28;20102;-70
2022/12/23 12:25:47;;;;;;;6.78;4.05;;;;;;;;;;5047006;28;20063;-70
2022/12/23 12:28:16;;;;;;;7.15;4.57;;;;;;;;;;5047522;28;20017;-68
2022/12/23 12:30:59;;;;;;;8.80;4.75;;;;;;;;;;5044767;28;20017;-67
2022/12/23 12:33:47;;;;;;;4.82;3.72;;;;;;;;;;5043613;28;20219;-67
2022/12/23 12:36:32;;;;;;;6.50;3.78;;;;;;;;;;5033028;28;20029;-68
2022/12/23 12:38:58;;;;;;;5.03;3.15;;;;;;;;;;5045653;28;20056;-66
2022/12/23 12:41:27;;;;;;;5.68;3.88;;;;;;;;;;5048049;28;20057;-67
2022/12/23 12:43:59;;;;;;;6.63;3.80;;;;;;;;;;5052233;28;20099;-66
2022/12/23 12:46:41;;;;;;;7.30;4.30;;;;;;;;;;5043304;28;20036;-66
2022/12/23 12:49:27;;;;;;;5.15;3.55;;;;;;;;;;5041686;28;20032;-66
2022/12/23 12:52:12;;;;;;;4.57;2.67;;;;;;;;;;5046660;28;20082;-67
2022/12/23 12:54:37;;;;;;;3.92;1.88;;;;;;;;;;5046296;28;20052;-67
2022/12/23 12:57:02;;;;;;;2.93;1.83;;;;;;;;;;5045736;28;20491;-67
2022/12/23 12:59:32;;;;;;;11.85;1.80;;;;;;;;;;5037994;28;20762;-67
2022/12/23 13:02:16;;;;;;;4.60;1.60;;;;;;;;;;5045732;28;20029;-67
2022/12/23 13:04:48;;;;;;;2.22;1.35;;;;;;;;;;5048907;28;20037;-66
2022/12/23 13:07:14;;;;;;;2.78;1.50;;;;;;;;;;5036008;28;20087;-67
2022/12/23 13:09:47;;;;;;;3.00;1.58;;;;;;;;;;5036520;28;20422;-66
2022/12/23 13:12:17;;;;;;;3.13;1.90;;;;;;;;;;5039499;28;20364;-67
2022/12/23 13:14:51;;;;;;;3.45;1.67;;;;;;;;;;5043296;28;20025;-67
2022/12/23 13:17:20;;;;;;;3.75;2.05;;;;;;;;;;5043708;28;20033;-67
2022/12/23 13:19:48;;;;;;;4.25;2.17;;;;;;;;;;5049333;28;20047;-67
2022/12/23 13:22:23;;;;;;;9.07;2.47;;;;;;;;;;5049708;28;20037;-67
2022/12/23 13:25:06;;;;;;;3.90;1.60;;;;;;;;;;5047071;28;20023;-67
2022/12/23 13:27:32;;;;;;;2.70;1.85;;;;;;;;;;5050532;28;20403;-67
2022/12/23 13:30:12;;;;;;;3.08;2.00;;;;;;;;;;5024989;28;20703;-66
2022/12/23 13:32:46;;;;;;;4.10;2.88;;;;;;;;;;4998004;28;20035;-66
2022/12/23 13:35:32;;;;;;;4.82;2.55;;;;;;;;;;5046532;28;20364;-67
2022/12/23 13:38:16;;;;;;;4.13;2.63;;;;;;;;;;5043416;28;20024;-66
2022/12/23 13:40:47;;;;;;;3.60;2.22;;;;;;;;;;5050385;28;20108;-66
2022/12/23 13:43:14;;;;;;;5.68;3.13;;;;;;;;;;5048732;28;20483;-66
2022/12/23 13:45:40;;;;;;;4.97;3.28;;;;;;;;;;5050748;28;20469;-65
2022/12/23 13:48:24;;;;;;;5.75;3.85;;;;;;;;;;5049704;28;20036;-66
2022/12/23 13:50:57;;;;;;;6.53;3.50;;;;;;;;;;5049948;28;20464;-66
2022/12/23 13:53:36;;;;;;;7.40;3.70;;;;;;;;;;5052051;28;20494;-67
2022/12/23 13:56:09;;;;;;;10.35;3.83;;;;;;;;;;5050710;28;20025;-69
2022/12/23 13:58:34;;;;;;;7.03;3.45;;;;;;;;;;5050453;28;20036;-66
2022/12/23 14:01:08;;;;;;;8.55;4.47;;;;;;;;;;5048723;28;20025;-68
2022/12/23 14:03:35;;;;;;;5.47;3.65;;;;;;;;;;5050883;28;20015;-67
2022/12/23 14:06:20;;;;;;;5.70;3.50;;;;;;;;;;5051042;28;20021;-67
2022/12/23 14:08:46;;;;;;;11.27;3.88;;;;;;;;;;5053212;28;20072;-67
2022/12/23 14:11:18;;;;;;;6.63;3.75;;;;;;;;;;5053906;28;20435;-67
2022/12/23 14:13:43;;;;;;;6.25;3.85;;;;;;;;;;5053892;28;20017;-68
2022/12/23 14:16:08;;;;;;;4.07;2.57;;;;;;;;;;5051083;28;20108;-68
2022/12/23 14:18:33;;;;;;;4.85;2.47;;;;;;;;;;5038268;28;20283;-68
2022/12/23 14:21:17;;;;;;;3.90;2.47;;;;;;;;;;5051142;28;20009;-67
2022/12/23 14:23:43;;;;;;;4.57;2.85;;;;;;;;;;5050351;28;20287;-67
2022/12/23 14:26:17;;;;;;;4.87;2.90;;;;;;;;;;5051882;28;20071;-67
2022/12/23 14:28:50;;;;;;;4.68;2.50;;;;;;;;;;5050141;28;20267;-67
2022/12/23 14:31:29;;;;;;;2.95;2.05;;;;;;;;;;5052190;28;20029;-67
2022/12/23 14:34:00;;;;;;;5.35;2.72;;;;;;;;;;5052969;28;20411;-68
2022/12/23 14:36:27;;;;;;;9.00;3.00;;;;;;;;;;5047334;28;20017;-68
2022/12/23 14:39:21;;;;;;;5.18;3.28;;;;;;;;;;5053028;28;20021;-73
2022/12/23 14:41:48;;;;;;;3.70;2.38;;;;;;;;;;5035392;28;20044;-69
2022/12/23 14:44:19;;;;;;;4.22;2.40;;;;;;;;;;5052541;28;20033;-69
2022/12/23 14:46:44;;;;;;;3.85;1.83;;;;;;;;;;5007568;28;20025;-71
2022/12/23 14:49:19;;;;;;;3.23;1.87;;;;;;;;;;5014726;28;20078;-69
2022/12/23 14:51:44;;;;;;;3.45;2.42;;;;;;;;;;5007663;28;20410;-71
2022/12/23 14:54:13;;;;;;;6.90;2.70;;;;;;;;;;5045575;28;20092;-71
2022/12/23 14:56:42;;;;;;;4.22;1.35;;;;;;;;;;5047077;28;20035;-70
2022/12/23 14:59:07;;;;;;;2.97;1.60;;;;;;;;;;5050573;28;20082;-76
2022/12/23 15:01:45;;;;;;;3.55;1.80;;;;;;;;;;5050725;28;20026;-67
2022/12/23 15:04:14;;;;;;;4.15;2.30;;;;;;;;;;5052202;28;20017;-73
2022/12/23 15:06:48;;;;;;;4.75;2.10;;;;;;;;;;5052798;28;20019;-71